sensor_id;sensor_type;location;lat;lon;timestamp;P1;durP1;ratioP1;P2;durP2;ratioP2
73898;SDS011;62234;50.892;12.724;2023-06-10T00:00:42;3.72;;;3.42;;
73898;SDS011;62234;50.892;12.724;2023-06-10T00:03:09;3.60;;;3.30;;
73898;SDS011;62234;50.892;12.724;2023-06-10T00:05:35;3.70;;;3.22;;
73898;SDS011;62234;50.892;12.724;2023-06-10T00:08:03;3.40;;;3.20;;
73898;SDS011;62234;50.892;12.724;2023-06-10T00:10:35;3.08;;;2.72;;
73898;SDS011;62234;50.892;12.724;2023-06-10T00:13:01;3.78;;;3.08;;
73898;SDS011;62234;50.892;12.724;2023-06-10T00:15:28;3.22;;;2.88;;
73898;SDS011;62234;50.892;12.724;2023-06-10T00:17:54;3.13;;;2.92;;
73898;SDS011;62234;50.892;12.724;2023-06-10T00:20:20;3.42;;;3.13;;
73898;SDS011;62234;50.892;12.724;2023-06-10T00:22:50;3.13;;;2.88;;
73898;SDS011;62234;50.892;12.724;2023-06-10T00:25:16;3.38;;;3.08;;
73898;SDS011;62234;50.892;12.724;2023-06-10T00:27:42;3.38;;;2.90;;
73898;SDS011;62234;50.892;12.724;2023-06-10T00:30:08;3.83;;;3.53;;
73898;SDS011;62234;50.892;12.724;2023-06-10T00:32:34;3.35;;;3.05;;
73898;SDS011;62234;50.892;12.724;2023-06-10T00:35:00;3.63;;;2.80;;
73898;SDS011;62234;50.892;12.724;2023-06-10T00:37:26;3.53;;;3.22;;
73898;SDS011;62234;50.892;12.724;2023-06-10T00:39:54;3.50;;;3.20;;
73898;SDS011;62234;50.892;12.724;2023-06-10T00:42:19;3.78;;;3.00;;
73898;SDS011;62234;50.892;12.724;2023-06-10T00:44:47;3.30;;;3.00;;
73898;SDS011;62234;50.892;12.724;2023-06-10T00:47:13;3.28;;;2.97;;
73898;SDS011;62234;50.892;12.724;2023-06-10T00:49:39;3.10;;;2.90;;
73898;SDS011;62234;50.892;12.724;2023-06-10T00:52:05;3.47;;;3.17;;
73898;SDS011;62234;50.892;12.724;2023-06-10T00:54:32;3.35;;;2.75;;
73898;SDS011;62234;50.892;12.724;2023-06-10T00:56:59;3.50;;;3.20;;
73898;SDS011;62234;50.892;12.724;2023-06-10T00:59:25;3.00;;;2.80;;
73898;SDS011;62234;50.892;12.724;2023-06-10T01:01:51;3.45;;;3.15;;
73898;SDS011;62234;50.892;12.724;2023-06-10T01:04:18;3.03;;;2.78;;
73898;SDS011;62234;50.892;12.724;2023-06-10T01:06:47;3.00;;;2.65;;
73898;SDS011;62234;50.892;12.724;2023-06-10T01:12:02;3.20;;;3.00;;
73898;SDS011;62234;50.892;12.724;2023-06-10T01:14:35;3.58;;;2.88;;
73898;SDS011;62234;50.892;12.724;2023-06-10T01:17:01;2.97;;;2.78;;
73898;SDS011;62234;50.892;12.724;2023-06-10T01:19:28;2.85;;;2.65;;
73898;SDS011;62234;50.892;12.724;2023-06-10T01:21:56;3.60;;;3.30;;
73898;SDS011;62234;50.892;12.724;2023-06-10T01:24:25;3.05;;;2.85;;
73898;SDS011;62234;50.892;12.724;2023-06-10T01:26:51;3.33;;;3.03;;
73898;SDS011;62234;50.892;12.724;2023-06-10T01:29:19;2.88;;;2.63;;
73898;SDS011;62234;50.892;12.724;2023-06-10T01:31:55;2.92;;;2.72;;
73898;SDS011;62234;50.892;12.724;2023-06-10T01:34:25;3.75;;;2.92;;
73898;SDS011;62234;50.892;12.724;2023-06-10T01:36:52;2.70;;;2.50;;
73898;SDS011;62234;50.892;12.724;2023-06-10T01:39:23;3.83;;;3.30;;
73898;SDS011;62234;50.892;12.724;2023-06-10T01:41:49;3.42;;;3.13;;
73898;SDS011;62234;50.892;12.724;2023-06-10T01:44:22;3.35;;;3.00;;
73898;SDS011;62234;50.892;12.724;2023-06-10T01:46:48;3.53;;;3.22;;
73898;SDS011;62234;50.892;12.724;2023-06-10T01:49:14;3.75;;;2.72;;
73898;SDS011;62234;50.892;12.724;2023-06-10T01:51:40;3.03;;;2.78;;
73898;SDS011;62234;50.892;12.724;2023-06-10T01:54:05;2.85;;;2.65;;
73898;SDS011;62234;50.892;12.724;2023-06-10T01:56:32;3.20;;;3.00;;
73898;SDS011;62234;50.892;12.724;2023-06-10T01:58:58;3.30;;;3.00;;
73898;SDS011;62234;50.892;12.724;2023-06-10T02:01:27;3.10;;;2.90;;
73898;SDS011;62234;50.892;12.724;2023-06-10T02:03:53;3.50;;;3.22;;
73898;SDS011;62234;50.892;12.724;2023-06-10T02:06:19;3.47;;;2.80;;
73898;SDS011;62234;50.892;12.724;2023-06-10T02:08:45;2.83;;;2.63;;
73898;SDS011;62234;50.892;12.724;2023-06-10T02:11:11;2.90;;;2.70;;
73898;SDS011;62234;50.892;12.724;2023-06-10T02:13:38;3.45;;;3.15;;
73898;SDS011;62234;50.892;12.724;2023-06-10T02:16:04;3.17;;;2.88;;
73898;SDS011;62234;50.892;12.724;2023-06-10T02:18:31;3.92;;;3.53;;
73898;SDS011;62234;50.892;12.724;2023-06-10T02:20:57;3.40;;;3.10;;
73898;SDS011;62234;50.892;12.724;2023-06-10T02:23:22;2.70;;;2.55;;
73898;SDS011;62234;50.892;12.724;2023-06-10T02:25:48;3.50;;;3.20;;
73898;SDS011;62234;50.892;12.724;2023-06-10T02:28:14;2.67;;;2.47;;
73898;SDS011;62234;50.892;12.724;2023-06-10T02:30:41;2.83;;;2.63;;
73898;SDS011;62234;50.892;12.724;2023-06-10T02:33:07;2.78;;;2.58;;
73898;SDS011;62234;50.892;12.724;2023-06-10T02:35:37;3.00;;;2.80;;
73898;SDS011;62234;50.892;12.724;2023-06-10T02:38:04;3.90;;;3.20;;
73898;SDS011;62234;50.892;12.724;2023-06-10T02:40:30;2.70;;;2.50;;
73898;SDS011;62234;50.892;12.724;2023-06-10T02:42:56;3.55;;;2.88;;
73898;SDS011;62234;50.892;12.724;2023-06-10T02:45:23;3.00;;;2.80;;
73898;SDS011;62234;50.892;12.724;2023-06-10T02:47:49;3.40;;;3.10;;
73898;SDS011;62234;50.892;12.724;2023-06-10T02:50:15;2.95;;;2.80;;
73898;SDS011;62234;50.892;12.724;2023-06-10T02:52:41;2.88;;;2.40;;
73898;SDS011;62234;50.892;12.724;2023-06-10T02:55:07;3.15;;;2.85;;
73898;SDS011;62234;50.892;12.724;2023-06-10T02:57:32;3.38;;;3.08;;
73898;SDS011;62234;50.892;12.724;2023-06-10T02:59:58;3.40;;;3.10;;
73898;SDS011;62234;50.892;12.724;2023-06-10T03:02:24;3.10;;;2.90;;
73898;SDS011;62234;50.892;12.724;2023-06-10T03:04:53;3.03;;;2.83;;
73898;SDS011;62234;50.892;12.724;2023-06-10T03:07:20;3.20;;;2.90;;
73898;SDS011;62234;50.892;12.724;2023-06-10T03:09:46;2.83;;;2.63;;
73898;SDS011;62234;50.892;12.724;2023-06-10T03:12:12;3.42;;;2.80;;
73898;SDS011;62234;50.892;12.724;2023-06-10T03:14:38;3.55;;;2.75;;
73898;SDS011;62234;50.892;12.724;2023-06-10T03:17:04;2.70;;;2.50;;
73898;SDS011;62234;50.892;12.724;2023-06-10T03:19:31;3.35;;;3.05;;
73898;SDS011;62234;50.892;12.724;2023-06-10T03:22:07;2.75;;;2.55;;
73898;SDS011;62234;50.892;12.724;2023-06-10T03:24:33;3.42;;;3.15;;
73898;SDS011;62234;50.892;12.724;2023-06-10T03:27:00;3.08;;;2.85;;
73898;SDS011;62234;50.892;12.724;2023-06-10T03:29:26;2.58;;;2.38;;
73898;SDS011;62234;50.892;12.724;2023-06-10T03:31:52;2.83;;;2.63;;
73898;SDS011;62234;50.892;12.724;2023-06-10T03:34:18;3.42;;;3.13;;
73898;SDS011;62234;50.892;12.724;2023-06-10T03:36:45;2.75;;;2.55;;
73898;SDS011;62234;50.892;12.724;2023-06-10T03:39:10;3.25;;;3.03;;
73898;SDS011;62234;50.892;12.724;2023-06-10T03:41:36;2.70;;;2.50;;
73898;SDS011;62234;50.892;12.724;2023-06-10T03:44:02;2.92;;;2.72;;
73898;SDS011;62234;50.892;12.724;2023-06-10T03:46:28;2.67;;;2.47;;
73898;SDS011;62234;50.892;12.724;2023-06-10T03:48:54;2.60;;;2.40;;
73898;SDS011;62234;50.892;12.724;2023-06-10T03:51:20;2.25;;;2.10;;
73898;SDS011;62234;50.892;12.724;2023-06-10T03:53:47;3.08;;;2.88;;
73898;SDS011;62234;50.892;12.724;2023-06-10T03:56:13;3.03;;;2.72;;
73898;SDS011;62234;50.892;12.724;2023-06-10T03:58:39;2.65;;;2.47;;
73898;SDS011;62234;50.892;12.724;2023-06-10T04:01:05;3.30;;;3.00;;
73898;SDS011;62234;50.892;12.724;2023-06-10T04:03:32;2.78;;;2.58;;
73898;SDS011;62234;50.892;12.724;2023-06-10T04:05:58;4.18;;;2.75;;
73898;SDS011;62234;50.892;12.724;2023-06-10T04:08:24;2.78;;;2.58;;
73898;SDS011;62234;50.892;12.724;2023-06-10T04:10:50;2.80;;;2.60;;
73898;SDS011;62234;50.892;12.724;2023-06-10T04:13:15;2.97;;;2.58;;
73898;SDS011;62234;50.892;12.724;2023-06-10T04:15:41;2.85;;;2.63;;
73898;SDS011;62234;50.892;12.724;2023-06-10T04:18:07;2.47;;;2.35;;
73898;SDS011;62234;50.892;12.724;2023-06-10T04:20:33;2.90;;;2.70;;
73898;SDS011;62234;50.892;12.724;2023-06-10T04:22:59;2.95;;;2.75;;
73898;SDS011;62234;50.892;12.724;2023-06-10T04:25:26;2.45;;;2.35;;
73898;SDS011;62234;50.892;12.724;2023-06-10T04:27:53;2.65;;;2.45;;
73898;SDS011;62234;50.892;12.724;2023-06-10T04:30:19;2.60;;;2.33;;
73898;SDS011;62234;50.892;12.724;2023-06-10T04:32:45;2.75;;;2.55;;
73898;SDS011;62234;50.892;12.724;2023-06-10T04:35:12;2.95;;;2.67;;
73898;SDS011;62234;50.892;12.724;2023-06-10T04:37:38;2.88;;;2.67;;
73898;SDS011;62234;50.892;12.724;2023-06-10T04:40:05;2.53;;;2.35;;
73898;SDS011;62234;50.892;12.724;2023-06-10T04:42:31;2.63;;;2.53;;
73898;SDS011;62234;50.892;12.724;2023-06-10T04:44:57;2.55;;;2.40;;
73898;SDS011;62234;50.892;12.724;2023-06-10T04:47:22;2.80;;;2.60;;
73898;SDS011;62234;50.892;12.724;2023-06-10T04:49:48;2.80;;;2.60;;
73898;SDS011;62234;50.892;12.724;2023-06-10T04:52:14;2.70;;;2.50;;
73898;SDS011;62234;50.892;12.724;2023-06-10T04:54:41;2.47;;;2.28;;
73898;SDS011;62234;50.892;12.724;2023-06-10T04:57:07;3.00;;;2.70;;
73898;SDS011;62234;50.892;12.724;2023-06-10T04:59:33;2.90;;;2.70;;
73898;SDS011;62234;50.892;12.724;2023-06-10T05:02:02;2.63;;;2.42;;
73898;SDS011;62234;50.892;12.724;2023-06-10T05:04:29;2.75;;;2.55;;
73898;SDS011;62234;50.892;12.724;2023-06-10T05:06:54;2.60;;;2.40;;
73898;SDS011;62234;50.892;12.724;2023-06-10T05:09:20;2.53;;;2.30;;
73898;SDS011;62234;50.892;12.724;2023-06-10T05:11:46;2.55;;;2.33;;
73898;SDS011;62234;50.892;12.724;2023-06-10T05:14:12;2.60;;;2.40;;
73898;SDS011;62234;50.892;12.724;2023-06-10T05:16:41;2.33;;;2.22;;
73898;SDS011;62234;50.892;12.724;2023-06-10T05:19:08;2.58;;;2.38;;
73898;SDS011;62234;50.892;12.724;2023-06-10T05:21:34;2.65;;;2.45;;
73898;SDS011;62234;50.892;12.724;2023-06-10T05:23:59;2.88;;;2.67;;
73898;SDS011;62234;50.892;12.724;2023-06-10T05:26:25;2.35;;;2.22;;
73898;SDS011;62234;50.892;12.724;2023-06-10T05:28:51;2.70;;;2.50;;
73898;SDS011;62234;50.892;12.724;2023-06-10T05:31:17;2.28;;;2.17;;
73898;SDS011;62234;50.892;12.724;2023-06-10T05:33:43;2.55;;;2.45;;
73898;SDS011;62234;50.892;12.724;2023-06-10T05:36:09;2.83;;;2.63;;
73898;SDS011;62234;50.892;12.724;2023-06-10T05:38:35;2.28;;;2.13;;
73898;SDS011;62234;50.892;12.724;2023-06-10T05:41:01;2.35;;;2.20;;
73898;SDS011;62234;50.892;12.724;2023-06-10T05:43:27;2.67;;;2.47;;
73898;SDS011;62234;50.892;12.724;2023-06-10T05:45:53;2.70;;;2.50;;
73898;SDS011;62234;50.892;12.724;2023-06-10T05:48:19;3.10;;;2.90;;
73898;SDS011;62234;50.892;12.724;2023-06-10T05:50:45;2.20;;;2.10;;
73898;SDS011;62234;50.892;12.724;2023-06-10T05:53:13;2.08;;;1.98;;
73898;SDS011;62234;50.892;12.724;2023-06-10T05:55:43;2.72;;;2.53;;
73898;SDS011;62234;50.892;12.724;2023-06-10T05:58:09;4.30;;;2.47;;
73898;SDS011;62234;50.892;12.724;2023-06-10T06:00:37;2.83;;;2.63;;
73898;SDS011;62234;50.892;12.724;2023-06-10T06:03:03;2.90;;;2.70;;
73898;SDS011;62234;50.892;12.724;2023-06-10T06:05:29;3.03;;;2.33;;
73898;SDS011;62234;50.892;12.724;2023-06-10T06:07:59;3.30;;;2.67;;
73898;SDS011;62234;50.892;12.724;2023-06-10T06:10:26;3.42;;;2.63;;
73898;SDS011;62234;50.892;12.724;2023-06-10T06:12:51;3.85;;;2.75;;
73898;SDS011;62234;50.892;12.724;2023-06-10T06:15:17;5.32;;;2.45;;
73898;SDS011;62234;50.892;12.724;2023-06-10T06:17:43;2.65;;;2.25;;
73898;SDS011;62234;50.892;12.724;2023-06-10T06:20:09;3.85;;;2.88;;
73898;SDS011;62234;50.892;12.724;2023-06-10T06:22:35;3.60;;;2.35;;
73898;SDS011;62234;50.892;12.724;2023-06-10T06:25:01;2.67;;;2.47;;
73898;SDS011;62234;50.892;12.724;2023-06-10T06:27:27;2.85;;;2.45;;
73898;SDS011;62234;50.892;12.724;2023-06-10T06:29:53;2.58;;;2.38;;
73898;SDS011;62234;50.892;12.724;2023-06-10T06:32:19;3.53;;;2.90;;
73898;SDS011;62234;50.892;12.724;2023-06-10T06:34:47;2.97;;;2.75;;
73898;SDS011;62234;50.892;12.724;2023-06-10T06:37:14;2.72;;;2.53;;
73898;SDS011;62234;50.892;12.724;2023-06-10T06:39:40;2.85;;;2.65;;
73898;SDS011;62234;50.892;12.724;2023-06-10T06:42:06;2.80;;;2.60;;
73898;SDS011;62234;50.892;12.724;2023-06-10T06:44:32;3.05;;;2.60;;
73898;SDS011;62234;50.892;12.724;2023-06-10T06:46:58;3.17;;;2.40;;
73898;SDS011;62234;50.892;12.724;2023-06-10T06:49:24;2.92;;;2.70;;
73898;SDS011;62234;50.892;12.724;2023-06-10T06:51:50;3.28;;;2.65;;
73898;SDS011;62234;50.892;12.724;2023-06-10T06:54:16;2.80;;;2.60;;
73898;SDS011;62234;50.892;12.724;2023-06-10T06:56:41;2.80;;;2.60;;
73898;SDS011;62234;50.892;12.724;2023-06-10T06:59:07;2.92;;;2.72;;
73898;SDS011;62234;50.892;12.724;2023-06-10T07:01:33;3.20;;;2.90;;
73898;SDS011;62234;50.892;12.724;2023-06-10T07:03:59;2.85;;;2.65;;
73898;SDS011;62234;50.892;12.724;2023-06-10T07:06:25;2.92;;;2.50;;
73898;SDS011;62234;50.892;12.724;2023-06-10T07:08:51;3.08;;;2.72;;
73898;SDS011;62234;50.892;12.724;2023-06-10T07:11:17;3.25;;;2.95;;
73898;SDS011;62234;50.892;12.724;2023-06-10T07:13:43;3.40;;;3.10;;
73898;SDS011;62234;50.892;12.724;2023-06-10T07:16:09;2.83;;;2.63;;
73898;SDS011;62234;50.892;12.724;2023-06-10T07:18:35;2.92;;;2.72;;
73898;SDS011;62234;50.892;12.724;2023-06-10T07:21:01;3.00;;;2.75;;
73898;SDS011;62234;50.892;12.724;2023-06-10T07:23:26;3.15;;;2.85;;
73898;SDS011;62234;50.892;12.724;2023-06-10T07:25:52;3.22;;;2.85;;
73898;SDS011;62234;50.892;12.724;2023-06-10T07:28:18;3.22;;;3.03;;
73898;SDS011;62234;50.892;12.724;2023-06-10T07:30:44;3.20;;;2.92;;
73898;SDS011;62234;50.892;12.724;2023-06-10T07:33:10;3.38;;;3.15;;
73898;SDS011;62234;50.892;12.724;2023-06-10T07:35:36;3.13;;;2.92;;
73898;SDS011;62234;50.892;12.724;2023-06-10T07:38:02;3.08;;;2.80;;
73898;SDS011;62234;50.892;12.724;2023-06-10T07:40:28;2.97;;;2.88;;
73898;SDS011;62234;50.892;12.724;2023-06-10T07:42:54;3.47;;;3.17;;
73898;SDS011;62234;50.892;12.724;2023-06-10T07:45:20;3.28;;;3.08;;
73898;SDS011;62234;50.892;12.724;2023-06-10T07:47:46;3.20;;;2.90;;
73898;SDS011;62234;50.892;12.724;2023-06-10T07:50:12;3.70;;;3.40;;
73898;SDS011;62234;50.892;12.724;2023-06-10T07:52:38;3.65;;;3.35;;
73898;SDS011;62234;50.892;12.724;2023-06-10T07:55:04;3.80;;;3.50;;
73898;SDS011;62234;50.892;12.724;2023-06-10T07:57:30;3.92;;;3.60;;
73898;SDS011;62234;50.892;12.724;2023-06-10T07:59:59;4.07;;;3.78;;
73898;SDS011;62234;50.892;12.724;2023-06-10T08:02:27;3.80;;;3.47;;
73898;SDS011;62234;50.892;12.724;2023-06-10T08:04:53;4.22;;;3.90;;
73898;SDS011;62234;50.892;12.724;2023-06-10T08:07:19;4.28;;;3.88;;
73898;SDS011;62234;50.892;12.724;2023-06-10T08:09:45;4.13;;;3.72;;
73898;SDS011;62234;50.892;12.724;2023-06-10T08:12:11;4.25;;;3.85;;
73898;SDS011;62234;50.892;12.724;2023-06-10T08:14:37;3.72;;;3.42;;
73898;SDS011;62234;50.892;12.724;2023-06-10T08:17:03;4.20;;;3.90;;
73898;SDS011;62234;50.892;12.724;2023-06-10T08:19:30;5.40;;;4.10;;
73898;SDS011;62234;50.892;12.724;2023-06-10T08:21:57;4.32;;;4.03;;
73898;SDS011;62234;50.892;12.724;2023-06-10T08:24:23;4.20;;;3.90;;
73898;SDS011;62234;50.892;12.724;2023-06-10T08:26:49;6.35;;;3.85;;
73898;SDS011;62234;50.892;12.724;2023-06-10T08:29:15;4.22;;;3.88;;
73898;SDS011;62234;50.892;12.724;2023-06-10T08:31:42;4.30;;;3.90;;
73898;SDS011;62234;50.892;12.724;2023-06-10T08:34:08;4.20;;;3.80;;
73898;SDS011;62234;50.892;12.724;2023-06-10T08:36:34;4.63;;;4.13;;
73898;SDS011;62234;50.892;12.724;2023-06-10T08:39:00;4.60;;;4.22;;
73898;SDS011;62234;50.892;12.724;2023-06-10T08:41:28;6.30;;;4.15;;
73898;SDS011;62234;50.892;12.724;2023-06-10T08:43:58;5.07;;;4.10;;
73898;SDS011;62234;50.892;12.724;2023-06-10T08:46:25;4.60;;;4.20;;
73898;SDS011;62234;50.892;12.724;2023-06-10T08:48:52;4.78;;;4.30;;
73898;SDS011;62234;50.892;12.724;2023-06-10T08:51:18;4.43;;;4.03;;
73898;SDS011;62234;50.892;12.724;2023-06-10T08:53:50;4.40;;;4.00;;
73898;SDS011;62234;50.892;12.724;2023-06-10T08:56:18;4.85;;;4.35;;
73898;SDS011;62234;50.892;12.724;2023-06-10T08:58:45;4.20;;;3.80;;
73898;SDS011;62234;50.892;12.724;2023-06-10T09:01:11;4.78;;;4.38;;
73898;SDS011;62234;50.892;12.724;2023-06-10T09:03:38;4.85;;;4.45;;
73898;SDS011;62234;50.892;12.724;2023-06-10T09:06:04;4.68;;;4.28;;
73898;SDS011;62234;50.892;12.724;2023-06-10T09:08:31;4.72;;;4.20;;
73898;SDS011;62234;50.892;12.724;2023-06-10T09:10:59;4.53;;;4.13;;
73898;SDS011;62234;50.892;12.724;2023-06-10T09:13:25;5.20;;;4.03;;
73898;SDS011;62234;50.892;12.724;2023-06-10T09:15:51;4.45;;;4.05;;
73898;SDS011;62234;50.892;12.724;2023-06-10T09:18:17;4.60;;;4.18;;
73898;SDS011;62234;50.892;12.724;2023-06-10T09:20:43;4.35;;;3.95;;
73898;SDS011;62234;50.892;12.724;2023-06-10T09:23:09;5.35;;;4.60;;
73898;SDS011;62234;50.892;12.724;2023-06-10T09:25:36;5.55;;;4.10;;
73898;SDS011;62234;50.892;12.724;2023-06-10T09:28:02;5.15;;;4.65;;
73898;SDS011;62234;50.892;12.724;2023-06-10T09:30:29;5.55;;;4.53;;
73898;SDS011;62234;50.892;12.724;2023-06-10T09:32:55;5.35;;;4.80;;
73898;SDS011;62234;50.892;12.724;2023-06-10T09:35:22;4.90;;;4.50;;
73898;SDS011;62234;50.892;12.724;2023-06-10T09:37:50;5.70;;;4.28;;
73898;SDS011;62234;50.892;12.724;2023-06-10T09:40:16;4.43;;;4.13;;
73898;SDS011;62234;50.892;12.724;2023-06-10T09:42:43;4.45;;;4.13;;
73898;SDS011;62234;50.892;12.724;2023-06-10T09:45:08;4.32;;;3.92;;
73898;SDS011;62234;50.892;12.724;2023-06-10T09:47:35;4.45;;;4.05;;
73898;SDS011;62234;50.892;12.724;2023-06-10T09:50:01;5.07;;;4.68;;
73898;SDS011;62234;50.892;12.724;2023-06-10T09:52:27;5.15;;;4.32;;
73898;SDS011;62234;50.892;12.724;2023-06-10T09:54:58;4.95;;;4.55;;
73898;SDS011;62234;50.892;12.724;2023-06-10T09:57:25;4.80;;;4.45;;
73898;SDS011;62234;50.892;12.724;2023-06-10T09:59:53;4.85;;;4.43;;
73898;SDS011;62234;50.892;12.724;2023-06-10T10:02:20;5.13;;;4.63;;
73898;SDS011;62234;50.892;12.724;2023-06-10T10:04:46;6.65;;;4.65;;
73898;SDS011;62234;50.892;12.724;2023-06-10T10:07:12;4.95;;;4.45;;
73898;SDS011;62234;50.892;12.724;2023-06-10T10:09:39;6.00;;;5.13;;
73898;SDS011;62234;50.892;12.724;2023-06-10T10:12:06;4.68;;;4.28;;
73898;SDS011;62234;50.892;12.724;2023-06-10T10:17:01;5.78;;;5.30;;
73898;SDS011;62234;50.892;12.724;2023-06-10T10:19:31;4.65;;;4.25;;
73898;SDS011;62234;50.892;12.724;2023-06-10T10:22:01;5.25;;;4.72;;
73898;SDS011;62234;50.892;12.724;2023-06-10T10:24:34;6.90;;;4.55;;
73898;SDS011;62234;50.892;12.724;2023-06-10T10:27:03;5.07;;;4.57;;
73898;SDS011;62234;50.892;12.724;2023-06-10T10:29:33;5.10;;;4.60;;
73898;SDS011;62234;50.892;12.724;2023-06-10T10:32:01;4.60;;;4.20;;
73898;SDS011;62234;50.892;12.724;2023-06-10T10:34:49;5.28;;;4.63;;
73898;SDS011;62234;50.892;12.724;2023-06-10T10:37:17;5.00;;;4.53;;
73898;SDS011;62234;50.892;12.724;2023-06-10T10:39:44;4.65;;;4.20;;
73898;SDS011;62234;50.892;12.724;2023-06-10T10:42:10;4.88;;;4.45;;
73898;SDS011;62234;50.892;12.724;2023-06-10T10:44:39;5.55;;;4.70;;
73898;SDS011;62234;50.892;12.724;2023-06-10T10:47:07;4.60;;;4.20;;
73898;SDS011;62234;50.892;12.724;2023-06-10T10:49:35;5.00;;;4.60;;
73898;SDS011;62234;50.892;12.724;2023-06-10T10:52:01;5.82;;;4.47;;
73898;SDS011;62234;50.892;12.724;2023-06-10T10:54:31;5.60;;;4.22;;
73898;SDS011;62234;50.892;12.724;2023-06-10T10:57:09;4.53;;;4.13;;
73898;SDS011;62234;50.892;12.724;2023-06-10T10:59:45;5.65;;;4.03;;
73898;SDS011;62234;50.892;12.724;2023-06-10T11:02:15;4.80;;;4.40;;
73898;SDS011;62234;50.892;12.724;2023-06-10T11:04:45;4.97;;;4.47;;
73898;SDS011;62234;50.892;12.724;2023-06-10T11:07:11;5.35;;;3.97;;
73898;SDS011;62234;50.892;12.724;2023-06-10T11:12:18;4.50;;;4.10;;
73898;SDS011;62234;50.892;12.724;2023-06-10T11:14:53;5.55;;;4.65;;
73898;SDS011;62234;50.892;12.724;2023-06-10T11:17:20;4.82;;;4.30;;
73898;SDS011;62234;50.892;12.724;2023-06-10T11:19:46;4.90;;;4.22;;
73898;SDS011;62234;50.892;12.724;2023-06-10T11:22:16;5.28;;;4.63;;
73898;SDS011;62234;50.892;12.724;2023-06-10T11:24:49;4.82;;;4.43;;
73898;SDS011;62234;50.892;12.724;2023-06-10T11:27:19;5.18;;;4.68;;
73898;SDS011;62234;50.892;12.724;2023-06-10T11:29:55;4.45;;;4.05;;
73898;SDS011;62234;50.892;12.724;2023-06-10T11:32:22;5.63;;;4.35;;
73898;SDS011;62234;50.892;12.724;2023-06-10T11:34:54;4.65;;;4.25;;
73898;SDS011;62234;50.892;12.724;2023-06-10T11:37:20;4.65;;;4.25;;
73898;SDS011;62234;50.892;12.724;2023-06-10T11:39:47;5.75;;;4.75;;
73898;SDS011;62234;50.892;12.724;2023-06-10T11:42:13;4.70;;;4.30;;
73898;SDS011;62234;50.892;12.724;2023-06-10T11:44:39;5.00;;;4.38;;
73898;SDS011;62234;50.892;12.724;2023-06-10T11:47:12;5.15;;;4.75;;
73898;SDS011;62234;50.892;12.724;2023-06-10T11:49:38;4.30;;;3.95;;
73898;SDS011;62234;50.892;12.724;2023-06-10T11:52:04;5.35;;;4.40;;
73898;SDS011;62234;50.892;12.724;2023-06-10T11:54:30;4.38;;;3.97;;
73898;SDS011;62234;50.892;12.724;2023-06-10T11:56:57;4.63;;;3.85;;
73898;SDS011;62234;50.892;12.724;2023-06-10T11:59:26;4.40;;;3.92;;
73898;SDS011;62234;50.892;12.724;2023-06-10T12:01:53;4.35;;;3.95;;
73898;SDS011;62234;50.892;12.724;2023-06-10T12:04:19;4.53;;;4.10;;
73898;SDS011;62234;50.892;12.724;2023-06-10T12:06:47;4.10;;;3.80;;
73898;SDS011;62234;50.892;12.724;2023-06-10T12:09:22;4.47;;;4.00;;
73898;SDS011;62234;50.892;12.724;2023-06-10T12:11:50;3.75;;;3.45;;
73898;SDS011;62234;50.892;12.724;2023-06-10T12:14:16;5.90;;;4.03;;
73898;SDS011;62234;50.892;12.724;2023-06-10T12:16:48;4.75;;;3.95;;
73898;SDS011;62234;50.892;12.724;2023-06-10T12:19:14;4.45;;;4.05;;
73898;SDS011;62234;50.892;12.724;2023-06-10T12:21:40;4.38;;;4.07;;
73898;SDS011;62234;50.892;12.724;2023-06-10T12:26:33;4.30;;;3.90;;
73898;SDS011;62234;50.892;12.724;2023-06-10T12:29:01;4.15;;;3.75;;
73898;SDS011;62234;50.892;12.724;2023-06-10T12:31:26;3.85;;;3.55;;
73898;SDS011;62234;50.892;12.724;2023-06-10T12:34:07;4.35;;;3.95;;
73898;SDS011;62234;50.892;12.724;2023-06-10T12:36:33;4.85;;;4.15;;
73898;SDS011;62234;50.892;12.724;2023-06-10T12:39:03;4.45;;;3.85;;
73898;SDS011;62234;50.892;12.724;2023-06-10T12:41:29;5.93;;;3.72;;
73898;SDS011;62234;50.892;12.724;2023-06-10T12:43:57;4.50;;;4.10;;
73898;SDS011;62234;50.892;12.724;2023-06-10T12:46:23;4.80;;;4.05;;
73898;SDS011;62234;50.892;12.724;2023-06-10T12:48:49;4.65;;;3.97;;
73898;SDS011;62234;50.892;12.724;2023-06-10T12:51:19;5.80;;;3.90;;
73898;SDS011;62234;50.892;12.724;2023-06-10T12:53:45;4.40;;;4.00;;
73898;SDS011;62234;50.892;12.724;2023-06-10T12:56:11;6.63;;;4.25;;
73898;SDS011;62234;50.892;12.724;2023-06-10T12:58:37;5.72;;;4.28;;
73898;SDS011;62234;50.892;12.724;2023-06-10T13:01:03;4.50;;;4.10;;
73898;SDS011;62234;50.892;12.724;2023-06-10T13:03:29;4.55;;;4.15;;
73898;SDS011;62234;50.892;12.724;2023-06-10T13:05:55;5.72;;;4.25;;
73898;SDS011;62234;50.892;12.724;2023-06-10T13:08:21;7.80;;;4.15;;
73898;SDS011;62234;50.892;12.724;2023-06-10T13:10:47;4.50;;;3.95;;
73898;SDS011;62234;50.892;12.724;2023-06-10T13:13:13;4.72;;;4.32;;
73898;SDS011;62234;50.892;12.724;2023-06-10T13:15:39;4.10;;;3.80;;
73898;SDS011;62234;50.892;12.724;2023-06-10T13:18:05;4.80;;;4.03;;
73898;SDS011;62234;50.892;12.724;2023-06-10T13:20:31;5.15;;;4.25;;
73898;SDS011;62234;50.892;12.724;2023-06-10T13:22:57;5.85;;;4.28;;
73898;SDS011;62234;50.892;12.724;2023-06-10T13:25:23;4.13;;;3.55;;
73898;SDS011;62234;50.892;12.724;2023-06-10T13:27:49;4.00;;;3.60;;
73898;SDS011;62234;50.892;12.724;2023-06-10T13:30:15;5.13;;;3.70;;
73898;SDS011;62234;50.892;12.724;2023-06-10T13:32:41;4.18;;;3.78;;
73898;SDS011;62234;50.892;12.724;2023-06-10T13:35:07;4.38;;;3.95;;
73898;SDS011;62234;50.892;12.724;2023-06-10T13:37:33;3.97;;;3.67;;
73898;SDS011;62234;50.892;12.724;2023-06-10T13:40:00;4.18;;;3.88;;
73898;SDS011;62234;50.892;12.724;2023-06-10T13:42:27;4.10;;;3.80;;
73898;SDS011;62234;50.892;12.724;2023-06-10T13:44:54;4.15;;;3.70;;
73898;SDS011;62234;50.892;12.724;2023-06-10T13:47:20;3.70;;;3.40;;
73898;SDS011;62234;50.892;12.724;2023-06-10T13:49:46;3.92;;;3.63;;
73898;SDS011;62234;50.892;12.724;2023-06-10T13:52:11;4.28;;;3.88;;
73898;SDS011;62234;50.892;12.724;2023-06-10T13:54:37;4.00;;;3.30;;
73898;SDS011;62234;50.892;12.724;2023-06-10T13:57:03;4.38;;;3.97;;
73898;SDS011;62234;50.892;12.724;2023-06-10T13:59:30;3.85;;;3.55;;
73898;SDS011;62234;50.892;12.724;2023-06-10T14:01:55;3.78;;;3.47;;
73898;SDS011;62234;50.892;12.724;2023-06-10T14:04:21;4.57;;;3.80;;
73898;SDS011;62234;50.892;12.724;2023-06-10T14:06:47;3.65;;;3.35;;
73898;SDS011;62234;50.892;12.724;2023-06-10T14:09:14;3.97;;;3.67;;
73898;SDS011;62234;50.892;12.724;2023-06-10T14:11:41;4.47;;;4.07;;
73898;SDS011;62234;50.892;12.724;2023-06-10T14:14:07;4.05;;;3.63;;
73898;SDS011;62234;50.892;12.724;2023-06-10T14:16:33;5.30;;;3.70;;
73898;SDS011;62234;50.892;12.724;2023-06-10T14:18:59;6.75;;;3.95;;
73898;SDS011;62234;50.892;12.724;2023-06-10T14:21:25;4.32;;;3.70;;
73898;SDS011;62234;50.892;12.724;2023-06-10T14:23:51;4.00;;;3.58;;
73898;SDS011;62234;50.892;12.724;2023-06-10T14:26:18;4.28;;;3.38;;
73898;SDS011;62234;50.892;12.724;2023-06-10T14:28:44;3.80;;;3.50;;
73898;SDS011;62234;50.892;12.724;2023-06-10T14:31:10;4.20;;;3.90;;
73898;SDS011;62234;50.892;12.724;2023-06-10T14:33:36;3.85;;;3.42;;
73898;SDS011;62234;50.892;12.724;2023-06-10T14:36:02;3.58;;;3.28;;
73898;SDS011;62234;50.892;12.724;2023-06-10T14:38:27;3.83;;;3.53;;
73898;SDS011;62234;50.892;12.724;2023-06-10T14:40:53;4.43;;;3.50;;